Time;durP1;ratioP1;P1;durP2;ratioP2;P2;SDS_P1;SDS_P2;PMS_P1;PMS_P2;Temp;Humidity;BMP_temperature;BMP_pressure;BME280_temperature;BME280_humidity;BME280_pressure;Samples;Min_cycle;Max_cycle;Signal;HPM_P1;HPM_P2
2023/11/17 00:01:20;;;;;;;3.80;3.60;;;;;;;;;;5115075;28;20271;-58
2023/11/17 00:03:47;;;;;;;4.13;3.83;;;;;;;;;;5115001;28;20278;-58
2023/11/17 00:06:14;;;;;;;3.60;3.40;;;;;;;;;;5114765;28;20290;-59
2023/11/17 00:08:41;;;;;;;4.75;4.03;;;;;;;;;;5114961;28;20184;-59
2023/11/17 00:11:11;;;;;;;4.00;3.70;;;;;;;;;;5114962;28;20639;-59
2023/11/17 00:13:38;;;;;;;4.25;3.95;;;;;;;;;;5114836;28;20191;-59
2023/11/17 00:16:06;;;;;;;5.13;4.47;;;;;;;;;;5114743;28;20187;-59
2023/11/17 00:18:34;;;;;;;5.78;3.90;;;;;;;;;;5114550;28;20192;-58
2023/11/17 00:21:02;;;;;;;4.80;3.92;;;;;;;;;;5114482;28;20192;-59
2023/11/17 00:23:29;;;;;;;4.38;3.97;;;;;;;;;;5114863;28;20188;-59
2023/11/17 00:25:56;;;;;;;3.60;3.33;;;;;;;;;;5114377;28;20673;-60
2023/11/17 00:28:24;;;;;;;4.85;4.45;;;;;;;;;;5114423;28;20228;-59
2023/11/17 00:30:51;;;;;;;5.00;4.60;;;;;;;;;;5114486;28;20579;-60
2023/11/17 00:33:19;;;;;;;4.75;4.05;;;;;;;;;;5113846;28;20618;-59
2023/11/17 00:35:46;;;;;;;4.20;3.90;;;;;;;;;;5114526;28;20651;-59
2023/11/17 00:38:13;;;;;;;4.93;4.43;;;;;;;;;;5114356;28;20333;-59
2023/11/17 00:40:40;;;;;;;4.63;4.22;;;;;;;;;;5114407;28;20726;-59
2023/11/17 00:43:09;;;;;;;4.50;4.20;;;;;;;;;;5114062;28;20216;-59
2023/11/17 00:45:37;;;;;;;5.00;4.60;;;;;;;;;;5114150;28;20200;-59
2023/11/17 00:48:04;;;;;;;4.40;4.10;;;;;;;;;;5113950;28;20302;-59
2023/11/17 00:50:32;;;;;;;5.57;5.13;;;;;;;;;;5114516;28;20260;-59
2023/11/17 00:53:05;;;;;;;4.68;4.28;;;;;;;;;;5113962;28;20662;-59
2023/11/17 00:55:32;;;;;;;5.25;4.00;;;;;;;;;;5114212;28;20690;-59
2023/11/17 00:57:59;;;;;;;4.53;4.18;;;;;;;;;;5114378;28;20196;-59
2023/11/17 01:00:27;;;;;;;5.25;4.28;;;;;;;;;;5113886;28;20564;-59
2023/11/17 01:02:57;;;;;;;4.85;4.05;;;;;;;;;;5113740;28;20188;-59
2023/11/17 01:05:24;;;;;;;4.20;3.90;;;;;;;;;;5113954;28;20187;-60
2023/11/17 01:07:52;;;;;;;4.80;4.50;;;;;;;;;;5113750;28;20250;-59
2023/11/17 01:10:19;;;;;;;4.95;4.55;;;;;;;;;;5113750;28;20241;-59
2023/11/17 01:12:46;;;;;;;4.40;4.10;;;;;;;;;;5113761;28;20600;-60
2023/11/17 01:15:13;;;;;;;4.68;4.28;;;;;;;;;;5113576;28;20639;-60
2023/11/17 01:17:42;;;;;;;4.78;4.38;;;;;;;;;;5113831;28;20187;-59
2023/11/17 01:20:12;;;;;;;4.60;4.22;;;;;;;;;;5113678;28;20188;-60
2023/11/17 01:22:39;;;;;;;6.15;4.60;;;;;;;;;;5113746;28;20192;-60
2023/11/17 01:25:06;;;;;;;5.20;4.50;;;;;;;;;;5113760;28;20291;-60
2023/11/17 01:27:33;;;;;;;4.25;3.95;;;;;;;;;;5113547;28;20219;-60
2023/11/17 01:30:00;;;;;;;4.70;4.40;;;;;;;;;;5113733;28;20190;-60
2023/11/17 01:32:29;;;;;;;4.40;4.00;;;;;;;;;;5113665;28;20445;-60
2023/11/17 01:34:56;;;;;;;5.53;5.05;;;;;;;;;;5113558;28;20188;-59
2023/11/17 01:37:25;;;;;;;4.85;4.30;;;;;;;;;;5113429;28;20245;-59
2023/11/17 01:39:52;;;;;;;4.82;4.43;;;;;;;;;;5113432;28;20199;-60
2023/11/17 01:42:18;;;;;;;4.50;4.10;;;;;;;;;;5113700;28;20275;-59
2023/11/17 01:44:45;;;;;;;6.15;4.45;;;;;;;;;;5115029;28;20619;-60
2023/11/17 01:47:12;;;;;;;5.10;4.00;;;;;;;;;;5117664;28;20231;-60
2023/11/17 01:49:39;;;;;;;5.13;4.72;;;;;;;;;;5117680;28;20274;-60
2023/11/17 01:52:07;;;;;;;4.75;4.28;;;;;;;;;;5117794;28;20226;-60
2023/11/17 01:54:36;;;;;;;5.77;4.70;;;;;;;;;;5117632;28;20194;-60
2023/11/17 01:57:04;;;;;;;3.83;3.53;;;;;;;;;;5117593;28;20528;-60
2023/11/17 01:59:31;;;;;;;4.78;4.30;;;;;;;;;;5117479;28;20184;-60
2023/11/17 02:01:58;;;;;;;4.18;3.80;;;;;;;;;;5117424;28;20282;-60
2023/11/17 02:04:26;;;;;;;4.28;3.97;;;;;;;;;;5117313;28;20528;-59
2023/11/17 02:06:57;;;;;;;5.05;4.55;;;;;;;;;;5117174;28;20265;-59
2023/11/17 02:09:29;;;;;;;4.10;3.80;;;;;;;;;;5117039;28;20261;-59
2023/11/17 02:12:04;;;;;;;4.50;4.20;;;;;;;;;;5117249;28;20196;-60
2023/11/17 02:14:36;;;;;;;8.18;4.78;;;;;;;;;;5117192;28;20849;-60
2023/11/17 02:17:03;;;;;;;4.45;4.05;;;;;;;;;;5117081;28;20192;-60
2023/11/17 02:19:33;;;;;;;4.70;4.30;;;;;;;;;;5116850;28;20196;-60
2023/11/17 02:22:02;;;;;;;3.93;3.63;;;;;;;;;;5116862;28;20228;-60
2023/11/17 02:24:31;;;;;;;4.78;4.38;;;;;;;;;;5117020;28;20438;-60
2023/11/17 02:27:06;;;;;;;3.50;3.28;;;;;;;;;;5116880;28;20196;-60
2023/11/17 02:29:37;;;;;;;4.43;3.65;;;;;;;;;;5116893;28;20199;-60
2023/11/17 02:32:04;;;;;;;4.43;4.10;;;;;;;;;;5116688;28;20188;-60
2023/11/17 02:34:32;;;;;;;6.70;3.75;;;;;;;;;;5116902;28;20441;-60
2023/11/17 02:36:59;;;;;;;3.90;3.60;;;;;;;;;;5116811;28;20282;-59
2023/11/17 02:39:26;;;;;;;3.60;3.40;;;;;;;;;;5116716;28;20600;-60
2023/11/17 02:41:57;;;;;;;3.58;3.28;;;;;;;;;;5116622;28;20188;-59
2023/11/17 02:44:28;;;;;;;4.57;3.70;;;;;;;;;;5116501;28;20322;-59
2023/11/17 02:46:59;;;;;;;6.53;4.40;;;;;;;;;;5116409;28;20639;-60
2023/11/17 02:49:34;;;;;;;3.78;3.47;;;;;;;;;;5116538;28;20291;-59
2023/11/17 02:52:03;;;;;;;3.55;3.25;;;;;;;;;;5116590;28;20189;-59
2023/11/17 02:54:30;;;;;;;3.83;3.58;;;;;;;;;;5116736;28;20187;-59
2023/11/17 02:56:58;;;;;;;4.18;3.80;;;;;;;;;;5115689;28;20550;-60
2023/11/17 02:59:25;;;;;;;3.55;3.35;;;;;;;;;;5116385;28;20223;-59
2023/11/17 03:01:52;;;;;;;3.63;3.33;;;;;;;;;;5116334;28;20187;-59
2023/11/17 03:04:20;;;;;;;3.75;3.40;;;;;;;;;;5116274;28;20290;-60
2023/11/17 03:06:48;;;;;;;3.45;3.15;;;;;;;;;;5116131;28;20188;-59
2023/11/17 03:09:16;;;;;;;3.17;2.97;;;;;;;;;;5115966;28;20262;-59
2023/11/17 03:11:44;;;;;;;4.18;3.50;;;;;;;;;;5115903;28;20643;-60
2023/11/17 03:14:11;;;;;;;3.38;3.05;;;;;;;;;;5116102;28;20266;-59
2023/11/17 03:16:38;;;;;;;4.40;3.25;;;;;;;;;;5116067;27;20332;-60
2023/11/17 03:19:10;;;;;;;2.88;2.67;;;;;;;;;;5115892;28;20271;-59
2023/11/17 03:21:40;;;;;;;3.35;3.08;;;;;;;;;;5115888;28;20214;-59
2023/11/17 03:24:13;;;;;;;5.50;4.05;;;;;;;;;;5115672;28;20244;-60
2023/11/17 03:26:40;;;;;;;3.45;3.15;;;;;;;;;;5115974;28;20238;-60
2023/11/17 03:29:07;;;;;;;3.38;3.08;;;;;;;;;;5115810;28;20364;-60
2023/11/17 03:31:34;;;;;;;3.30;3.00;;;;;;;;;;5115726;28;20188;-59
2023/11/17 03:34:02;;;;;;;4.60;3.22;;;;;;;;;;5115625;28;20188;-60
2023/11/17 03:36:28;;;;;;;3.25;3.05;;;;;;;;;;5115520;28;20650;-59
2023/11/17 03:38:57;;;;;;;3.83;2.97;;;;;;;;;;5115300;28;20673;-59
2023/11/17 03:41:24;;;;;;;3.60;2.90;;;;;;;;;;5115537;28;20445;-59
2023/11/17 03:43:51;;;;;;;2.63;2.43;;;;;;;;;;5115320;28;20216;-59
2023/11/17 03:46:18;;;;;;;3.60;3.30;;;;;;;;;;5115411;28;20533;-60
2023/11/17 03:48:45;;;;;;;3.80;3.50;;;;;;;;;;5115110;28;20295;-59
2023/11/17 03:51:12;;;;;;;3.30;3.10;;;;;;;;;;5115161;28;20192;-60
2023/11/17 03:53:39;;;;;;;6.95;3.70;;;;;;;;;;5115120;28;20609;-59
2023/11/17 03:56:07;;;;;;;4.80;3.90;;;;;;;;;;5115268;28;20188;-59
2023/11/17 03:58:34;;;;;;;3.42;3.10;;;;;;;;;;5114926;27;20673;-59
2023/11/17 04:01:02;;;;;;;3.10;2.70;;;;;;;;;;5115024;28;20216;-60
2023/11/17 04:03:32;;;;;;;3.40;3.20;;;;;;;;;;5115056;28;20220;-60
2023/11/17 04:05:59;;;;;;;2.80;2.60;;;;;;;;;;5114849;28;20555;-59
2023/11/17 04:08:26;;;;;;;3.03;2.83;;;;;;;;;;5113955;28;20219;-59
2023/11/17 04:10:53;;;;;;;3.72;3.42;;;;;;;;;;5114949;28;20275;-60
2023/11/17 04:13:24;;;;;;;3.80;3.50;;;;;;;;;;5114914;28;20275;-60
2023/11/17 04:15:51;;;;;;;3.78;3.53;;;;;;;;;;5114724;28;20237;-59
2023/11/17 04:18:18;;;;;;;3.75;3.45;;;;;;;;;;5114556;28;20241;-60
2023/11/17 04:20:48;;;;;;;3.85;3.55;;;;;;;;;;5114838;28;20201;-59
2023/11/17 04:23:15;;;;;;;4.00;3.70;;;;;;;;;;5114765;28;20191;-59
2023/11/17 04:25:42;;;;;;;4.05;3.65;;;;;;;;;;5114678;28;20643;-60
2023/11/17 04:28:09;;;;;;;3.67;3.40;;;;;;;;;;5114299;28;20667;-59
2023/11/17 04:30:37;;;;;;;4.30;3.90;;;;;;;;;;5114467;28;20274;-60
2023/11/17 04:33:04;;;;;;;4.20;3.90;;;;;;;;;;5114311;28;20278;-59
2023/11/17 04:35:32;;;;;;;4.35;4.00;;;;;;;;;;5114512;28;20188;-59
2023/11/17 04:37:59;;;;;;;4.20;3.90;;;;;;;;;;5114397;28;20199;-59
2023/11/17 04:40:27;;;;;;;3.90;3.60;;;;;;;;;;5114272;28;20283;-60
2023/11/17 04:42:54;;;;;;;4.00;3.70;;;;;;;;;;5114052;28;20197;-59
2023/11/17 04:45:21;;;;;;;4.72;4.32;;;;;;;;;;5114079;28;20280;-60
2023/11/17 04:47:49;;;;;;;3.95;3.63;;;;;;;;;;5114218;28;20192;-60
2023/11/17 04:50:16;;;;;;;5.05;4.25;;;;;;;;;;5114054;28;20730;-60
2023/11/17 04:52:44;;;;;;;4.90;4.50;;;;;;;;;;5114147;28;20188;-59
2023/11/17 04:55:13;;;;;;;4.55;4.25;;;;;;;;;;5113999;28;20195;-59
2023/11/17 04:57:40;;;;;;;4.25;3.95;;;;;;;;;;5113974;28;20573;-60
2023/11/17 05:00:13;;;;;;;4.25;3.95;;;;;;;;;;5113857;28;20280;-60
2023/11/17 05:02:42;;;;;;;4.00;3.70;;;;;;;;;;5114093;28;20196;-60
2023/11/17 05:05:11;;;;;;;4.40;4.10;;;;;;;;;;5113983;28;20286;-60
2023/11/17 05:07:39;;;;;;;3.90;3.60;;;;;;;;;;5113771;28;20555;-59
2023/11/17 05:10:07;;;;;;;4.72;4.35;;;;;;;;;;5113636;28;20620;-60
2023/11/17 05:12:34;;;;;;;4.85;4.55;;;;;;;;;;5113725;28;20520;-59
2023/11/17 05:15:02;;;;;;;3.70;3.47;;;;;;;;;;5113857;28;20270;-60
2023/11/17 05:17:34;;;;;;;4.22;3.92;;;;;;;;;;5113689;28;20287;-60
2023/11/17 05:20:01;;;;;;;4.20;3.80;;;;;;;;;;5113485;28;20192;-60
2023/11/17 05:22:29;;;;;;;4.10;3.80;;;;;;;;;;5113513;28;20681;-60
2023/11/17 05:24:58;;;;;;;3.60;3.40;;;;;;;;;;5113422;28;20237;-60
2023/11/17 05:27:25;;;;;;;4.65;4.25;;;;;;;;;;5113692;28;20287;-60
2023/11/17 05:29:52;;;;;;;3.63;3.33;;;;;;;;;;5113431;28;20230;-61
2023/11/17 05:32:22;;;;;;;4.53;4.22;;;;;;;;;;5113862;28;20190;-60
2023/11/17 05:34:50;;;;;;;3.88;3.58;;;;;;;;;;5113491;28;20214;-58
2023/11/17 05:37:18;;;;;;;3.75;3.40;;;;;;;;;;5113617;28;20236;-58
2023/11/17 05:39:46;;;;;;;3.45;3.25;;;;;;;;;;5113326;28;20303;-58
2023/11/17 05:42:13;;;;;;;3.55;3.35;;;;;;;;;;5113491;28;20279;-58
2023/11/17 05:44:50;;;;;;;3.97;3.67;;;;;;;;;;5113132;28;20314;-63
2023/11/17 05:47:17;;;;;;;5.13;3.60;;;;;;;;;;5113176;28;20222;-59
2023/11/17 05:49:45;;;;;;;3.95;3.65;;;;;;;;;;5113167;28;20215;-59
2023/11/17 05:52:12;;;;;;;3.85;3.55;;;;;;;;;;5113153;28;20240;-59
2023/11/17 05:54:43;;;;;;;3.75;3.55;;;;;;;;;;5113408;28;20187;-59
2023/11/17 05:57:12;;;;;;;3.90;3.60;;;;;;;;;;5113277;28;20187;-59
2023/11/17 05:59:39;;;;;;;4.15;3.85;;;;;;;;;;5113114;28;20203;-60
2023/11/17 06:02:06;;;;;;;4.40;3.95;;;;;;;;;;5113621;28;20184;-60
2023/11/17 06:04:33;;;;;;;4.05;3.85;;;;;;;;;;5112983;28;20601;-60
2023/11/17 06:07:00;;;;;;;4.97;3.90;;;;;;;;;;5113354;28;20662;-60
2023/11/17 06:09:27;;;;;;;3.40;3.20;;;;;;;;;;5113051;28;20306;-60
2023/11/17 06:11:55;;;;;;;4.32;4.03;;;;;;;;;;5113139;28;20184;-58
2023/11/17 06:14:23;;;;;;;4.00;3.60;;;;;;;;;;5113038;28;20283;-60
2023/11/17 06:16:53;;;;;;;3.85;3.65;;;;;;;;;;5113087;28;20278;-58
2023/11/17 06:19:20;;;;;;;4.55;4.22;;;;;;;;;;5112835;28;20190;-58
2023/11/17 06:21:47;;;;;;;4.57;4.28;;;;;;;;;;5112739;28;20698;-59
2023/11/17 06:24:15;;;;;;;4.47;4.18;;;;;;;;;;5112847;28;20203;-59
2023/11/17 06:26:43;;;;;;;4.35;4.05;;;;;;;;;;5112874;28;20666;-59
2023/11/17 06:29:10;;;;;;;4.15;3.75;;;;;;;;;;5112806;28;20212;-58
2023/11/17 06:31:38;;;;;;;3.33;3.13;;;;;;;;;;5115576;28;20279;-59
2023/11/17 06:34:05;;;;;;;6.97;3.30;;;;;;;;;;5116766;28;20188;-58
2023/11/17 06:36:33;;;;;;;3.95;3.75;;;;;;;;;;5116723;28;20275;-59
2023/11/17 06:39:00;;;;;;;8.55;3.60;;;;;;;;;;5116636;28;20192;-58
2023/11/17 06:41:31;;;;;;;4.63;4.10;;;;;;;;;;5116643;28;20196;-59
2023/11/17 06:43:58;;;;;;;7.72;3.67;;;;;;;;;;5116303;28;20220;-59
2023/11/17 06:46:25;;;;;;;4.25;3.85;;;;;;;;;;5116398;28;20700;-59
2023/11/17 06:48:53;;;;;;;3.75;3.45;;;;;;;;;;5116503;28;20222;-59
2023/11/17 06:51:20;;;;;;;4.15;3.75;;;;;;;;;;5116643;28;20621;-59
2023/11/17 06:53:48;;;;;;;4.43;4.03;;;;;;;;;;5116398;28;20597;-59
2023/11/17 06:56:15;;;;;;;6.10;3.92;;;;;;;;;;5116142;28;20635;-59
2023/11/17 06:58:42;;;;;;;4.30;3.90;;;;;;;;;;5116077;28;20195;-59
2023/11/17 07:01:09;;;;;;;4.53;3.75;;;;;;;;;;5115840;28;20199;-59
2023/11/17 07:03:39;;;;;;;3.95;3.65;;;;;;;;;;5116270;28;20188;-59
2023/11/17 07:06:07;;;;;;;10.65;3.70;;;;;;;;;;5116191;28;20215;-59
2023/11/17 07:08:34;;;;;;;4.10;3.80;;;;;;;;;;5115962;28;20192;-59
2023/11/17 07:11:01;;;;;;;4.47;3.88;;;;;;;;;;5115929;28;20188;-59
2023/11/17 07:13:28;;;;;;;4.15;3.50;;;;;;;;;;5115792;28;20196;-59
2023/11/17 07:15:55;;;;;;;3.92;3.35;;;;;;;;;;5116005;28;20245;-59
2023/11/17 07:18:22;;;;;;;4.20;3.90;;;;;;;;;;5115570;28;20677;-59
2023/11/17 07:20:51;;;;;;;4.20;3.90;;;;;;;;;;5115796;28;20192;-59
2023/11/17 07:23:20;;;;;;;4.10;3.80;;;;;;;;;;5115725;28;20192;-59
2023/11/17 07:25:47;;;;;;;4.85;4.45;;;;;;;;;;5115584;28;20614;-59
2023/11/17 07:28:15;;;;;;;6.20;3.45;;;;;;;;;;5115571;28;20278;-59
2023/11/17 07:30:43;;;;;;;3.83;3.53;;;;;;;;;;5115363;28;20244;-59
2023/11/17 07:33:10;;;;;;;5.78;5.18;;;;;;;;;;5115605;28;20643;-59
2023/11/17 07:35:41;;;;;;;5.05;4.65;;;;;;;;;;5115532;28;20184;-59
2023/11/17 07:38:08;;;;;;;5.13;3.95;;;;;;;;;;5115313;28;20204;-59
2023/11/17 07:40:37;;;;;;;6.68;3.63;;;;;;;;;;5115224;28;20299;-59
2023/11/17 07:43:05;;;;;;;7.78;4.18;;;;;;;;;;5114290;28;20629;-59
2023/11/17 07:45:32;;;;;;;5.80;3.95;;;;;;;;;;5115390;28;20656;-59
2023/11/17 07:47:59;;;;;;;7.10;6.38;;;;;;;;;;5114617;28;20270;-59
2023/11/17 07:50:26;;;;;;;4.20;3.30;;;;;;;;;;5114615;28;20687;-59
2023/11/17 07:52:53;;;;;;;3.85;3.60;;;;;;;;;;5114525;28;20176;-60
2023/11/17 07:55:22;;;;;;;4.43;4.13;;;;;;;;;;5114781;28;20190;-59
2023/11/17 07:57:56;;;;;;;4.15;3.85;;;;;;;;;;5114583;28;20184;-60
2023/11/17 08:00:27;;;;;;;3.97;3.67;;;;;;;;;;5112793;28;20184;-59
2023/11/17 08:02:54;;;;;;;3.80;3.55;;;;;;;;;;5114544;28;20555;-59
2023/11/17 08:05:21;;;;;;;6.10;4.13;;;;;;;;;;5114320;28;20590;-59
2023/11/17 08:07:48;;;;;;;4.90;4.47;;;;;;;;;;5114401;28;20176;-59
2023/11/17 08:10:15;;;;;;;3.75;3.50;;;;;;;;;;5114230;28;20212;-59
2023/11/17 08:12:46;;;;;;;5.55;4.43;;;;;;;;;;5114365;28;20266;-59
2023/11/17 08:15:17;;;;;;;4.70;4.30;;;;;;;;;;5114071;28;20190;-59
2023/11/17 08:17:44;;;;;;;4.47;4.18;;;;;;;;;;5113786;28;20187;-59
2023/11/17 08:20:14;;;;;;;3.95;3.70;;;;;;;;;;5116243;27;20259;-61
2023/11/17 08:22:42;;;;;;;13.50;4.75;;;;;;;;;;5111829;28;20613;-61
2023/11/17 08:25:09;;;;;;;4.10;3.80;;;;;;;;;;5114182;28;20620;-59
2023/11/17 08:27:36;;;;;;;4.78;4.38;;;;;;;;;;5113891;28;20616;-59
2023/11/17 08:30:07;;;;;;;4.38;4.05;;;;;;;;;;5113753;28;20204;-59
2023/11/17 08:32:38;;;;;;;4.70;4.20;;;;;;;;;;5113477;28;20192;-58
2023/11/17 08:35:07;;;;;;;4.07;3.67;;;;;;;;;;5114065;28;20176;-60
2023/11/17 08:37:35;;;;;;;4.40;4.10;;;;;;;;;;5113887;28;20180;-58
2023/11/17 08:40:08;;;;;;;4.68;4.28;;;;;;;;;;5113552;28;20671;-60
2023/11/17 08:42:35;;;;;;;4.00;3.70;;;;;;;;;;5113301;28;20182;-60
2023/11/17 08:45:07;;;;;;;4.57;4.20;;;;;;;;;;5113326;28;20297;-60
2023/11/17 08:47:36;;;;;;;5.25;4.80;;;;;;;;;;5111730;28;20179;-59
2023/11/17 08:50:03;;;;;;;5.22;4.35;;;;;;;;;;5113558;28;20219;-59
2023/11/17 08:52:34;;;;;;;4.40;4.10;;;;;;;;;;5113470;28;20551;-59
2023/11/17 08:55:02;;;;;;;4.88;4.15;;;;;;;;;;5113242;28;20180;-59
2023/11/17 08:57:30;;;;;;;4.72;4.30;;;;;;;;;;5110300;28;20275;-58
2023/11/17 08:59:59;;;;;;;3.50;3.20;;;;;;;;;;5113981;28;20219;-57
2023/11/17 09:02:26;;;;;;;6.13;5.47;;;;;;;;;;5113873;28;20237;-59
2023/11/17 09:04:54;;;;;;;4.45;4.05;;;;;;;;;;5113746;28;20237;-59
2023/11/17 09:07:22;;;;;;;4.63;4.25;;;;;;;;;;5113615;28;20279;-58
2023/11/17 09:09:48;;;;;;;3.85;3.45;;;;;;;;;;5113562;28;20222;-59
2023/11/17 09:12:15;;;;;;;4.00;3.70;;;;;;;;;;5113452;28;20195;-59
2023/11/17 09:14:43;;;;;;;3.95;3.65;;;;;;;;;;5113793;28;20611;-60
2023/11/17 09:17:12;;;;;;;4.13;3.83;;;;;;;;;;5113643;28;20606;-56
2023/11/17 09:19:41;;;;;;;3.22;2.92;;;;;;;;;;5113616;28;20286;-57
2023/11/17 09:22:09;;;;;;;5.40;3.70;;;;;;;;;;5113361;28;20192;-55
2023/11/17 09:24:38;;;;;;;4.90;4.45;;;;;;;;;;5113224;28;20219;-57
2023/11/17 09:27:07;;;;;;;3.92;3.53;;;;;;;;;;5112680;28;20710;-57
2023/11/17 09:29:34;;;;;;;4.22;3.70;;;;;;;;;;5112311;28;20239;-56
2023/11/17 09:32:01;;;;;;;3.72;3.50;;;;;;;;;;5113229;28;20192;-57
2023/11/17 09:34:28;;;;;;;3.80;3.50;;;;;;;;;;5113134;28;20198;-55
2023/11/17 09:36:55;;;;;;;3.83;3.53;;;;;;;;;;5113096;28;20651;-59
2023/11/17 09:39:23;;;;;;;3.67;3.28;;;;;;;;;;5113047;28;20226;-57
2023/11/17 09:41:51;;;;;;;2.90;2.72;;;;;;;;;;5113240;28;20673;-62
2023/11/17 09:44:18;;;;;;;4.00;3.50;;;;;;;;;;5113016;28;20262;-62
2023/11/17 09:46:49;;;;;;;3.97;3.67;;;;;;;;;;5113257;28;20184;-61
2023/11/17 09:49:18;;;;;;;4.00;3.65;;;;;;;;;;5113015;28;20183;-60
2023/11/17 09:51:46;;;;;;;3.75;3.45;;;;;;;;;;5113666;28;20702;-60
2023/11/17 09:54:14;;;;;;;3.42;3.13;;;;;;;;;;5113200;28;20283;-60
2023/11/17 09:56:43;;;;;;;3.83;3.53;;;;;;;;;;5113199;28;20278;-60
2023/11/17 09:59:10;;;;;;;3.83;3.42;;;;;;;;;;5113036;28;20199;-60
2023/11/17 10:01:37;;;;;;;4.43;3.50;;;;;;;;;;5112995;28;20244;-60
2023/11/17 10:04:06;;;;;;;4.20;3.90;;;;;;;;;;5112977;28;20195;-61
2023/11/17 10:06:33;;;;;;;3.80;3.40;;;;;;;;;;5116148;28;20194;-60
2023/11/17 10:09:02;;;;;;;3.80;3.28;;;;;;;;;;5117147;28;20589;-62
2023/11/17 10:11:30;;;;;;;4.50;4.10;;;;;;;;;;5116798;28;20223;-60
2023/11/17 10:14:00;;;;;;;3.88;3.58;;;;;;;;;;5116967;28;20290;-60
2023/11/17 10:16:28;;;;;;;3.92;3.65;;;;;;;;;;5116990;28;20192;-61
2023/11/17 10:18:57;;;;;;;4.03;3.63;;;;;;;;;;5116740;28;20191;-62
2023/11/17 10:21:24;;;;;;;4.30;3.95;;;;;;;;;;5116831;28;20528;-60
2023/11/17 10:23:53;;;;;;;3.95;3.38;;;;;;;;;;5116832;28;20192;-61
2023/11/17 10:26:22;;;;;;;4.80;4.40;;;;;;;;;;5116708;28;20199;-60
2023/11/17 10:28:50;;;;;;;4.03;3.72;;;;;;;;;;5113634;28;20192;-61
2023/11/17 10:31:19;;;;;;;3.90;3.60;;;;;;;;;;5116359;28;20211;-61
2023/11/17 10:33:46;;;;;;;4.00;3.70;;;;;;;;;;5116704;28;20192;-60
2023/11/17 10:36:15;;;;;;;4.28;3.88;;;;;;;;;;5116339;28;20701;-61
2023/11/17 10:38:45;;;;;;;4.00;3.70;;;;;;;;;;5116340;28;20266;-61
2023/11/17 10:41:14;;;;;;;3.90;3.60;;;;;;;;;;5116287;28;20585;-62
2023/11/17 10:43:48;;;;;;;4.18;3.88;;;;;;;;;;5116004;28;20221;-61
2023/11/17 10:46:16;;;;;;;3.97;3.67;;;;;;;;;;5116203;28;20275;-59
2023/11/17 10:48:45;;;;;;;4.25;3.95;;;;;;;;;;5116298;28;20261;-59
2023/11/17 10:51:13;;;;;;;4.45;4.05;;;;;;;;;;5116297;28;20266;-59
2023/11/17 10:53:40;;;;;;;4.10;3.80;;;;;;;;;;5116476;28;20626;-60
2023/11/17 10:56:23;;;;;;;3.28;2.97;;;;;;;;;;5115995;28;20192;-61
2023/11/17 10:58:52;;;;;;;3.85;3.63;;;;;;;;;;5095704;28;20276;-59
2023/11/17 11:01:20;;;;;;;4.20;3.90;;;;;;;;;;5095661;28;20571;-60
2023/11/17 11:03:48;;;;;;;3.88;3.50;;;;;;;;;;5099849;28;20229;-60
2023/11/17 11:06:16;;;;;;;3.70;3.45;;;;;;;;;;5113101;28;20217;-59
2023/11/17 11:08:51;;;;;;;3.80;3.50;;;;;;;;;;5115147;28;20271;-59
2023/11/17 11:11:21;;;;;;;3.42;3.13;;;;;;;;;;5115114;28;20637;-59
2023/11/17 11:13:53;;;;;;;3.88;3.58;;;;;;;;;;5115103;28;20180;-59
2023/11/17 11:16:20;;;;;;;3.95;3.60;;;;;;;;;;5112091;28;20241;-59
2023/11/17 11:18:48;;;;;;;3.72;3.30;;;;;;;;;;5115317;28;20207;-59
2023/11/17 11:21:17;;;;;;;3.40;3.10;;;;;;;;;;5115043;28;20237;-60
2023/11/17 11:23:45;;;;;;;4.10;3.70;;;;;;;;;;5115396;28;20176;-60
2023/11/17 11:26:13;;;;;;;2.85;2.65;;;;;;;;;;5115084;28;20940;-60
2023/11/17 11:28:41;;;;;;;4.30;3.90;;;;;;;;;;5112262;28;20223;-60
2023/11/17 11:31:09;;;;;;;3.35;3.15;;;;;;;;;;5115436;28;20211;-60
2023/11/17 11:33:36;;;;;;;4.43;3.15;;;;;;;;;;5115183;28;20237;-58
2023/11/17 11:36:05;;;;;;;3.22;3.03;;;;;;;;;;5115101;28;20187;-56
2023/11/17 11:38:32;;;;;;;4.07;3.78;;;;;;;;;;5115419;28;20207;-54
2023/11/17 11:41:01;;;;;;;2.58;2.47;;;;;;;;;;5114840;28;20199;-56
2023/11/17 11:43:30;;;;;;;3.92;3.42;;;;;;;;;;5114893;28;20219;-57
2023/11/17 11:45:57;;;;;;;4.10;3.80;;;;;;;;;;5112324;28;20180;-55
2023/11/17 11:48:25;;;;;;;5.00;3.30;;;;;;;;;;5114537;28;20180;-57
2023/11/17 11:50:54;;;;;;;3.40;3.20;;;;;;;;;;5114410;28;21010;-57
2023/11/17 11:53:24;;;;;;;2.78;2.58;;;;;;;;;;5114737;28;20184;-57
2023/11/17 11:55:52;;;;;;;10.43;4.23;;;;;;;;;;5113128;28;20191;-56
2023/11/17 11:58:19;;;;;;;2.88;2.60;;;;;;;;;;5112775;28;20537;-57
2023/11/17 12:00:49;;;;;;;3.20;3.00;;;;;;;;;;5112553;28;20266;-57
2023/11/17 12:03:15;;;;;;;2.92;2.72;;;;;;;;;;5109817;28;20188;-57
2023/11/17 12:05:44;;;;;;;3.23;3.03;;;;;;;;;;5112425;28;20647;-56
2023/11/17 12:08:22;;;;;;;2.20;2.10;;;;;;;;;;5112731;28;20511;-57
2023/11/17 12:10:54;;;;;;;2.88;2.67;;;;;;;;;;5113659;28;20306;-57
2023/11/17 12:13:36;;;;;;;2.60;2.45;;;;;;;;;;5114641;28;20188;-58
2023/11/17 12:16:06;;;;;;;3.38;2.90;;;;;;;;;;5114464;28;20655;-56
2023/11/17 12:18:34;;;;;;;2.65;2.45;;;;;;;;;;5114478;28;20224;-56
2023/11/17 12:21:17;;;;;;;2.40;2.20;;;;;;;;;;5114246;28;20214;-57
2023/11/17 12:23:51;;;;;;;2.58;2.38;;;;;;;;;;5114407;28;20925;-58
2023/11/17 12:26:20;;;;;;;2.88;2.72;;;;;;;;;;5114615;28;20183;-57
2023/11/17 12:28:47;;;;;;;3.00;2.78;;;;;;;;;;5113734;28;20216;-58
2023/11/17 12:31:14;;;;;;;3.50;3.20;;;;;;;;;;5114352;28;20269;-57
2023/11/17 12:33:42;;;;;;;3.05;2.75;;;;;;;;;;5114377;28;20778;-58
2023/11/17 12:36:13;;;;;;;2.90;2.70;;;;;;;;;;5114243;28;20192;-57
2023/11/17 12:38:40;;;;;;;3.20;3.00;;;;;;;;;;5114382;28;20469;-57
2023/11/17 12:41:09;;;;;;;2.75;2.33;;;;;;;;;;5114481;28;20215;-58
2023/11/17 12:43:38;;;;;;;3.20;2.90;;;;;;;;;;5114069;28;20224;-57
2023/11/17 12:46:05;;;;;;;3.50;3.20;;;;;;;;;;5114030;28;20188;-58
2023/11/17 12:48:33;;;;;;;2.65;2.45;;;;;;;;;;5113914;28;20442;-58
2023/11/17 12:51:01;;;;;;;2.95;2.47;;;;;;;;;;5113778;28;20690;-60
2023/11/17 12:53:37;;;;;;;3.17;2.92;;;;;;;;;;5114220;28;20195;-57
2023/11/17 12:56:05;;;;;;;2.90;2.70;;;;;;;;;;5114498;28;20651;-57
2023/11/17 12:58:32;;;;;;;2.60;2.40;;;;;;;;;;5113931;28;20438;-56
2023/11/17 13:01:10;;;;;;;3.25;3.05;;;;;;;;;;5113891;28;20233;-57
2023/11/17 13:03:37;;;;;;;3.40;3.10;;;;;;;;;;5113818;28;20194;-57
2023/11/17 13:06:04;;;;;;;3.58;3.30;;;;;;;;;;5113852;28;20194;-56
2023/11/17 13:08:32;;;;;;;3.80;3.00;;;;;;;;;;5113749;28;20225;-54
2023/11/17 13:11:00;;;;;;;2.83;2.63;;;;;;;;;;5113607;28;20825;-52
2023/11/17 13:13:27;;;;;;;3.00;2.80;;;;;;;;;;5113638;28;20445;-56
2023/11/17 13:15:54;;;;;;;2.80;2.60;;;;;;;;;;5113435;28;20693;-54
2023/11/17 13:18:24;;;;;;;3.83;2.87;;;;;;;;;;5113643;28;20448;-56
2023/11/17 13:20:54;;;;;;;2.80;2.60;;;;;;;;;;5113691;28;20504;-55
2023/11/17 13:23:21;;;;;;;3.15;2.95;;;;;;;;;;5113559;28;20188;-56
2023/11/17 13:26:00;;;;;;;2.80;2.57;;;;;;;;;;5113676;28;20275;-56
2023/11/17 13:28:28;;;;;;;2.72;2.53;;;;;;;;;;5113230;28;20519;-57
2023/11/17 13:30:56;;;;;;;3.45;3.08;;;;;;;;;;5113701;28;20218;-57
2023/11/17 13:33:39;;;;;;;2.65;2.50;;;;;;;;;;5113479;28;20192;-57
2023/11/17 13:36:08;;;;;;;3.63;2.70;;;;;;;;;;5113839;28;20489;-57
2023/11/17 13:38:52;;;;;;;2.93;2.73;;;;;;;;;;5113351;28;20643;-57
2023/11/17 13:41:19;;;;;;;2.92;2.72;;;;;;;;;;5113576;28;20449;-56
2023/11/17 13:43:47;;;;;;;2.97;2.78;;;;;;;;;;5113190;28;20216;-56
2023/11/17 13:46:14;;;;;;;3.63;2.93;;;;;;;;;;5113299;28;20195;-55
2023/11/17 13:48:44;;;;;;;3.13;2.92;;;;;;;;;;5113078;28;20556;-56
2023/11/17 13:51:11;;;;;;;2.90;2.70;;;;;;;;;;5113056;28;20216;-57
2023/11/17 13:53:38;;;;;;;2.67;2.47;;;;;;;;;;5113441;28;20834;-56
2023/11/17 13:56:08;;;;;;;3.47;2.90;;;;;;;;;;5113378;28;20274;-55
2023/11/17 13:58:35;;;;;;;2.57;2.37;;;;;;;;;;5113178;28;20442;-56
2023/11/17 14:01:02;;;;;;;2.87;2.67;;;;;;;;;;5113047;28;20804;-56
2023/11/17 14:03:29;;;;;;;2.58;2.38;;;;;;;;;;5113127;28;20647;-57
2023/11/17 14:05:58;;;;;;;3.03;2.72;;;;;;;;;;5113492;28;20188;-56
2023/11/17 14:08:25;;;;;;;2.90;2.70;;;;;;;;;;5113121;28;20190;-56
2023/11/17 14:10:52;;;;;;;2.43;2.23;;;;;;;;;;5112920;28;20237;-55
2023/11/17 14:13:19;;;;;;;3.77;3.50;;;;;;;;;;5113086;28;20467;-57
2023/11/17 14:15:46;;;;;;;4.23;3.90;;;;;;;;;;5112871;28;20922;-56
2023/11/17 14:18:14;;;;;;;3.40;3.10;;;;;;;;;;5112663;28;20928;-56
2023/11/17 14:20:41;;;;;;;3.03;2.80;;;;;;;;;;5113155;28;20792;-56
2023/11/17 14:23:10;;;;;;;4.60;4.20;;;;;;;;;;5113048;28;20191;-52
2023/11/17 14:25:38;;;;;;;6.33;3.50;;;;;;;;;;5112973;28;20527;-56
2023/11/17 14:28:05;;;;;;;3.03;2.83;;;;;;;;;;5112953;28;20528;-56
2023/11/17 14:30:32;;;;;;;2.77;2.57;;;;;;;;;;5112990;28;20906;-52
2023/11/17 14:33:01;;;;;;;3.30;3.10;;;;;;;;;;5112753;28;20568;-53
2023/11/17 14:35:28;;;;;;;2.70;2.50;;;;;;;;;;5113041;28;20194;-56
2023/11/17 14:37:55;;;;;;;2.47;2.33;;;;;;;;;;5112781;28;20444;-57
2023/11/17 14:40:27;;;;;;;2.40;2.30;;;;;;;;;;5112806;28;20437;-55
2023/11/17 14:42:58;;;;;;;1.92;1.83;;;;;;;;;;5112612;28;20282;-57
2023/11/17 14:45:26;;;;;;;5.07;4.68;;;;;;;;;;5112745;28;20241;-56
2023/11/17 14:47:53;;;;;;;3.37;2.67;;;;;;;;;;5112921;28;20665;-57
2023/11/17 14:50:21;;;;;;;2.10;2.00;;;;;;;;;;5112734;28;20450;-57